Time;durP1;ratioP1;P1;durP2;ratioP2;P2;SDS_P1;SDS_P2;PMS_P1;PMS_P2;Temp;Humidity;BMP_temperature;BMP_pressure;BME280_temperature;BME280_humidity;BME280_pressure;Samples;Min_cycle;Max_cycle;Signal;HPM_P1;HPM_P2
2022/03/13 00:02:20;;;;;;;15.05;8.27;;;;;;;;;;4974722;28;20047;-74
2022/03/13 00:04:49;;;;;;;13.20;7.97;;;;;;;;;;4974052;28;20296;-72
2022/03/13 00:07:19;;;;;;;12.77;7.97;;;;;;;;;;4973806;28;20059;-72
2022/03/13 00:09:48;;;;;;;13.40;8.40;;;;;;;;;;4974264;28;20054;-73
2022/03/13 00:12:18;;;;;;;15.45;8.05;;;;;;;;;;4974079;28;20424;-73
2022/03/13 00:14:46;;;;;;;13.48;8.43;;;;;;;;;;4973933;28;20090;-72
2022/03/13 00:17:16;;;;;;;15.10;9.30;;;;;;;;;;4973808;28;20046;-72
2022/03/13 00:19:44;;;;;;;14.48;8.30;;;;;;;;;;4973985;28;20098;-73
2022/03/13 00:22:12;;;;;;;13.75;8.15;;;;;;;;;;4974108;28;20475;-75
2022/03/13 00:24:41;;;;;;;20.80;8.73;;;;;;;;;;4974305;28;20416;-73
2022/03/13 00:27:08;;;;;;;14.88;8.45;;;;;;;;;;4974439;28;20050;-73
2022/03/13 00:29:36;;;;;;;14.13;8.43;;;;;;;;;;4973804;28;20066;-72
2022/03/13 00:32:04;;;;;;;15.82;8.48;;;;;;;;;;4974106;28;20047;-73
2022/03/13 00:34:32;;;;;;;16.80;9.32;;;;;;;;;;4973722;28;20090;-73
2022/03/13 00:36:59;;;;;;;15.15;9.10;;;;;;;;;;4973626;28;20047;-73
2022/03/13 00:39:26;;;;;;;12.88;8.48;;;;;;;;;;4973769;28;20054;-72
2022/03/13 00:41:55;;;;;;;17.48;9.80;;;;;;;;;;4973851;28;20082;-72
2022/03/13 00:44:21;;;;;;;13.43;8.85;;;;;;;;;;4973708;28;20061;-73
2022/03/13 00:46:49;;;;;;;13.85;8.32;;;;;;;;;;4973823;28;20057;-73
2022/03/13 00:49:16;;;;;;;12.93;8.45;;;;;;;;;;4973506;28;20085;-73
2022/03/13 00:51:44;;;;;;;14.75;8.75;;;;;;;;;;4973623;28;20408;-73
2022/03/13 00:54:11;;;;;;;13.93;8.35;;;;;;;;;;4973576;28;20094;-73
2022/03/13 00:56:39;;;;;;;15.15;8.48;;;;;;;;;;4973251;28;20417;-74
2022/03/13 00:59:07;;;;;;;14.88;8.75;;;;;;;;;;4973355;28;20129;-73
2022/03/13 01:01:34;;;;;;;19.63;10.10;;;;;;;;;;4973451;28;20058;-73
2022/03/13 01:04:01;;;;;;;11.43;8.48;;;;;;;;;;4973599;28;20069;-73
2022/03/13 01:06:28;;;;;;;13.90;8.55;;;;;;;;;;4973170;28;20554;-73
2022/03/13 01:08:55;;;;;;;14.57;9.13;;;;;;;;;;4973274;28;20051;-73
2022/03/13 01:11:23;;;;;;;14.25;8.73;;;;;;;;;;4973509;28;20047;-73
2022/03/13 01:13:51;;;;;;;17.25;8.80;;;;;;;;;;4973163;28;20055;-73
2022/03/13 01:16:21;;;;;;;14.43;8.57;;;;;;;;;;4973305;28;20058;-74
2022/03/13 01:18:51;;;;;;;16.38;8.88;;;;;;;;;;4973336;28;20058;-72
2022/03/13 01:21:19;;;;;;;16.10;8.98;;;;;;;;;;4973279;28;20133;-72
2022/03/13 01:24:17;;;;;;;13.07;8.73;;;;;;;;;;4973670;28;20063;-72
2022/03/13 01:26:45;;;;;;;16.13;8.63;;;;;;;;;;4972946;28;20046;-73
2022/03/13 01:29:14;;;;;;;13.23;8.65;;;;;;;;;;4973312;28;20066;-73
2022/03/13 01:31:45;;;;;;;13.18;8.27;;;;;;;;;;4973322;28;20057;-73
2022/03/13 01:34:14;;;;;;;13.52;8.30;;;;;;;;;;4972731;28;20051;-73
2022/03/13 01:36:41;;;;;;;14.85;8.95;;;;;;;;;;4972875;28;20050;-73
2022/03/13 01:39:08;;;;;;;15.02;9.18;;;;;;;;;;4972709;28;20051;-72
2022/03/13 01:41:36;;;;;;;16.75;9.38;;;;;;;;;;4973007;28;20130;-73
2022/03/13 01:44:05;;;;;;;14.98;9.13;;;;;;;;;;4973236;28;20420;-72
2022/03/13 01:46:32;;;;;;;14.45;9.02;;;;;;;;;;4972847;28;20050;-72
2022/03/13 01:49:03;;;;;;;16.90;9.20;;;;;;;;;;4972654;28;20051;-73
2022/03/13 01:51:30;;;;;;;16.98;8.63;;;;;;;;;;4972951;28;20054;-73
2022/03/13 01:53:59;;;;;;;13.60;8.63;;;;;;;;;;4972862;28;20055;-73
2022/03/13 01:56:26;;;;;;;14.65;8.77;;;;;;;;;;4972801;28;20051;-73
2022/03/13 01:58:56;;;;;;;17.05;8.88;;;;;;;;;;4972811;28;20508;-73
2022/03/13 02:01:26;;;;;;;15.95;8.52;;;;;;;;;;4972769;28;20485;-73
2022/03/13 02:03:53;;;;;;;15.48;8.75;;;;;;;;;;4972618;28;20489;-73
2022/03/13 02:06:23;;;;;;;13.45;8.27;;;;;;;;;;4972262;28;20051;-73
2022/03/13 02:08:50;;;;;;;13.50;7.45;;;;;;;;;;4974357;28;20061;-73
2022/03/13 02:11:19;;;;;;;13.10;7.97;;;;;;;;;;4976435;28;20046;-73
2022/03/13 02:13:48;;;;;;;15.65;7.93;;;;;;;;;;4976408;28;20055;-74
2022/03/13 02:16:16;;;;;;;15.02;7.60;;;;;;;;;;4976327;28;20465;-74
2022/03/13 02:18:48;;;;;;;12.68;7.70;;;;;;;;;;4976160;28;20047;-72
2022/03/13 02:21:16;;;;;;;12.25;7.22;;;;;;;;;;4976233;28;20050;-72
2022/03/13 02:23:45;;;;;;;14.23;7.47;;;;;;;;;;4976378;28;20061;-72
2022/03/13 02:26:12;;;;;;;14.02;7.97;;;;;;;;;;4976172;28;20355;-73
2022/03/13 02:28:49;;;;;;;12.95;7.60;;;;;;;;;;4976130;28;20057;-73
2022/03/13 02:31:20;;;;;;;11.70;7.10;;;;;;;;;;4976096;28;20047;-73
2022/03/13 02:33:47;;;;;;;12.25;7.93;;;;;;;;;;4975832;28;20062;-74
2022/03/13 02:36:30;;;;;;;15.35;8.07;;;;;;;;;;4975864;28;20046;-73
2022/03/13 02:38:59;;;;;;;12.52;7.13;;;;;;;;;;4976013;28;20431;-73
2022/03/13 02:41:26;;;;;;;13.10;7.50;;;;;;;;;;4975930;28;20514;-73
2022/03/13 02:43:53;;;;;;;11.65;7.15;;;;;;;;;;4975712;28;20077;-72
2022/03/13 02:46:21;;;;;;;12.30;7.00;;;;;;;;;;4975518;28;20094;-72
2022/03/13 02:48:49;;;;;;;15.43;6.88;;;;;;;;;;4975644;28;20078;-73
2022/03/13 02:51:16;;;;;;;14.30;6.85;;;;;;;;;;4975895;28;20054;-72
2022/03/13 02:53:44;;;;;;;13.50;7.25;;;;;;;;;;4976052;28;20047;-73
2022/03/13 02:56:12;;;;;;;14.27;7.25;;;;;;;;;;4975288;28;20451;-72
2022/03/13 02:58:39;;;;;;;12.80;7.30;;;;;;;;;;4975393;28;20063;-72
2022/03/13 03:01:06;;;;;;;14.05;6.93;;;;;;;;;;4975695;28;20061;-73
2022/03/13 03:03:33;;;;;;;12.07;6.57;;;;;;;;;;4975618;28;20066;-73
2022/03/13 03:06:03;;;;;;;11.40;7.32;;;;;;;;;;4975151;28;20059;-73
2022/03/13 03:08:29;;;;;;;13.95;7.45;;;;;;;;;;4975415;28;20147;-72
2022/03/13 03:10:56;;;;;;;13.10;6.93;;;;;;;;;;4975229;28;20052;-72
2022/03/13 03:13:25;;;;;;;14.30;7.28;;;;;;;;;;4975299;28;20514;-73
2022/03/13 03:15:52;;;;;;;15.68;7.22;;;;;;;;;;4975019;28;20061;-72
2022/03/13 03:18:19;;;;;;;21.13;7.53;;;;;;;;;;4975261;28;20409;-73
2022/03/13 03:20:46;;;;;;;12.02;6.63;;;;;;;;;;4984382;23;20728;-58
2022/03/13 03:23:13;;;;;;;13.27;7.43;;;;;;;;;;4956269;28;20051;-58
2022/03/13 03:25:40;;;;;;;10.98;6.88;;;;;;;;;;4956754;28;20055;-59
2022/03/13 03:28:08;;;;;;;12.80;7.13;;;;;;;;;;4956275;28;20055;-59
2022/03/13 03:30:36;;;;;;;12.18;6.75;;;;;;;;;;4956830;28;20062;-59
2022/03/13 03:33:05;;;;;;;10.68;7.18;;;;;;;;;;4961226;28;20057;-56
2022/03/13 03:35:32;;;;;;;83.18;37.55;;;;;;;;;;4961687;28;20123;-58
2022/03/13 03:37:59;;;;;;;147.90;69.32;;;;;;;;;;4961535;28;20047;-59
2022/03/13 03:40:28;;;;;;;97.65;49.85;;;;;;;;;;4961340;28;20055;-57
2022/03/13 03:42:56;;;;;;;21.60;11.93;;;;;;;;;;4960854;28;20055;-58
2022/03/13 03:45:23;;;;;;;12.07;7.53;;;;;;;;;;4960540;28;20059;-59
2022/03/13 03:47:53;;;;;;;12.63;6.93;;;;;;;;;;4960925;28;20515;-58
2022/03/13 03:50:21;;;;;;;11.75;6.72;;;;;;;;;;4960468;28;20534;-58
2022/03/13 03:52:50;;;;;;;11.65;7.15;;;;;;;;;;4961121;28;20051;-59
2022/03/13 03:55:17;;;;;;;11.77;6.88;;;;;;;;;;4960915;28;20083;-60
2022/03/13 03:57:45;;;;;;;12.60;7.43;;;;;;;;;;4961702;28;20078;-60
2022/03/13 04:00:13;;;;;;;15.30;7.18;;;;;;;;;;4960875;28;20061;-60
2022/03/13 04:02:40;;;;;;;12.40;7.10;;;;;;;;;;4960583;28;20062;-58
2022/03/13 04:05:09;;;;;;;12.10;7.15;;;;;;;;;;4961429;28;20061;-58
2022/03/13 04:07:37;;;;;;;12.93;7.47;;;;;;;;;;4961105;28;20100;-58
2022/03/13 04:10:04;;;;;;;13.57;7.43;;;;;;;;;;4960140;28;20051;-57
2022/03/13 04:12:32;;;;;;;12.18;7.45;;;;;;;;;;4960375;28;20051;-56
2022/03/13 04:15:00;;;;;;;13.20;6.25;;;;;;;;;;4960643;28;20074;-58
2022/03/13 04:17:27;;;;;;;9.18;5.68;;;;;;;;;;4959677;28;20090;-58
2022/03/13 04:19:54;;;;;;;13.00;6.50;;;;;;;;;;4959568;28;20055;-58
2022/03/13 04:22:22;;;;;;;10.40;6.22;;;;;;;;;;4959901;28;20086;-58
2022/03/13 04:24:50;;;;;;;12.93;6.18;;;;;;;;;;4960504;28;20435;-57
2022/03/13 04:27:17;;;;;;;12.20;7.13;;;;;;;;;;4960608;28;20047;-58
2022/03/13 04:29:44;;;;;;;9.77;6.32;;;;;;;;;;4959875;28;20057;-59
2022/03/13 04:32:11;;;;;;;10.20;6.38;;;;;;;;;;4959356;28;20047;-58
2022/03/13 04:34:38;;;;;;;12.68;6.45;;;;;;;;;;4959405;28;20151;-59
2022/03/13 04:37:06;;;;;;;12.20;6.68;;;;;;;;;;4959156;28;20138;-58
2022/03/13 04:39:35;;;;;;;11.68;6.18;;;;;;;;;;4959667;28;20055;-59
2022/03/13 04:42:04;;;;;;;12.10;6.75;;;;;;;;;;4959355;28;20106;-58
2022/03/13 04:44:32;;;;;;;11.20;7.03;;;;;;;;;;4959828;28;20055;-58
2022/03/13 04:46:59;;;;;;;13.95;6.20;;;;;;;;;;4960218;28;20079;-59
2022/03/13 04:49:29;;;;;;;12.85;6.18;;;;;;;;;;4960188;28;20482;-59
2022/03/13 04:51:56;;;;;;;11.65;6.15;;;;;;;;;;4959620;28;20058;-56
2022/03/13 04:54:23;;;;;;;10.32;6.13;;;;;;;;;;4959112;28;20059;-59
2022/03/13 04:56:52;;;;;;;13.50;6.50;;;;;;;;;;4960085;28;20051;-57
2022/03/13 04:59:20;;;;;;;11.55;6.22;;;;;;;;;;4959463;28;20497;-59
2022/03/13 05:01:47;;;;;;;11.10;6.30;;;;;;;;;;4960049;28;20047;-58
2022/03/13 05:04:14;;;;;;;10.75;6.82;;;;;;;;;;4959909;28;20411;-57
2022/03/13 05:06:45;;;;;;;12.50;6.50;;;;;;;;;;4959880;28;20051;-59
2022/03/13 05:09:12;;;;;;;10.75;5.90;;;;;;;;;;4959346;28;20150;-59
2022/03/13 05:11:39;;;;;;;12.68;6.30;;;;;;;;;;4960672;28;20097;-59
2022/03/13 05:14:08;;;;;;;11.43;6.47;;;;;;;;;;4959997;28;20058;-59
2022/03/13 05:16:35;;;;;;;12.43;6.90;;;;;;;;;;4960469;28;20051;-58
2022/03/13 05:19:06;;;;;;;9.93;6.20;;;;;;;;;;4960111;29;20101;-60
2022/03/13 05:21:34;;;;;;;11.77;7.05;;;;;;;;;;4959937;28;20115;-59
2022/03/13 05:24:01;;;;;;;11.05;6.47;;;;;;;;;;4960559;28;20098;-58
2022/03/13 05:26:29;;;;;;;11.45;7.15;;;;;;;;;;4960347;28;20057;-58
2022/03/13 05:28:56;;;;;;;13.23;6.45;;;;;;;;;;4960034;28;20062;-58
2022/03/13 05:31:25;;;;;;;12.05;6.57;;;;;;;;;;4959724;28;20075;-59
2022/03/13 05:33:52;;;;;;;11.88;6.50;;;;;;;;;;4960644;28;20489;-56
2022/03/13 05:36:19;;;;;;;10.95;6.25;;;;;;;;;;4960374;28;20403;-57
2022/03/13 05:38:46;;;;;;;12.85;6.45;;;;;;;;;;4960391;28;20135;-56
2022/03/13 05:41:13;;;;;;;11.23;6.57;;;;;;;;;;4959719;28;20059;-59
2022/03/13 05:43:42;;;;;;;11.23;6.20;;;;;;;;;;4960313;28;20106;-58
2022/03/13 05:46:09;;;;;;;11.40;7.28;;;;;;;;;;4964141;28;20177;-60
2022/03/13 05:48:39;;;;;;;10.25;5.95;;;;;;;;;;4963539;28;20051;-59
2022/03/13 05:51:06;;;;;;;12.82;7.03;;;;;;;;;;4963229;28;20099;-59
2022/03/13 05:53:34;;;;;;;14.48;6.40;;;;;;;;;;4963307;28;20110;-58
2022/03/13 05:56:01;;;;;;;11.70;7.07;;;;;;;;;;4962839;28;20047;-58
2022/03/13 05:58:29;;;;;;;10.32;6.80;;;;;;;;;;4963355;28;20054;-59
2022/03/13 06:01:03;;;;;;;13.07;6.47;;;;;;;;;;4962875;28;20055;-58
2022/03/13 06:03:31;;;;;;;12.30;6.38;;;;;;;;;;4963572;28;20170;-55
2022/03/13 06:06:01;;;;;;;13.93;7.05;;;;;;;;;;4963152;28;20066;-58
2022/03/13 06:08:28;;;;;;;11.75;6.32;;;;;;;;;;4963107;28;20067;-58
2022/03/13 06:10:55;;;;;;;10.93;6.43;;;;;;;;;;4963014;28;20082;-59
2022/03/13 06:13:22;;;;;;;10.70;6.15;;;;;;;;;;4963075;28;20051;-59
2022/03/13 06:15:50;;;;;;;12.07;6.65;;;;;;;;;;4962373;28;20528;-58
2022/03/13 06:18:17;;;;;;;11.80;5.80;;;;;;;;;;4963188;28;20089;-59
2022/03/13 06:20:44;;;;;;;11.52;6.90;;;;;;;;;;4962428;28;20118;-57
2022/03/13 06:23:13;;;;;;;11.43;6.95;;;;;;;;;;4962534;28;20051;-59
2022/03/13 06:25:43;;;;;;;11.88;7.00;;;;;;;;;;4962589;28;20107;-59
2022/03/13 06:28:10;;;;;;;12.30;6.60;;;;;;;;;;4962828;28;20122;-59
2022/03/13 06:30:37;;;;;;;12.40;6.55;;;;;;;;;;4963187;28;20397;-59
2022/03/13 06:33:04;;;;;;;14.63;6.97;;;;;;;;;;4962509;28;20102;-58
2022/03/13 06:35:32;;;;;;;14.52;6.65;;;;;;;;;;4962708;28;20051;-59
2022/03/13 06:37:59;;;;;;;10.95;6.68;;;;;;;;;;4962481;28;20093;-59
2022/03/13 06:40:28;;;;;;;14.57;8.07;;;;;;;;;;4961124;28;20437;-58
2022/03/13 06:42:56;;;;;;;9.77;7.10;;;;;;;;;;4962036;28;20082;-57
2022/03/13 06:45:24;;;;;;;13.80;7.30;;;;;;;;;;4961635;28;20577;-58
2022/03/13 06:47:52;;;;;;;13.25;7.15;;;;;;;;;;4961362;28;20059;-59
2022/03/13 06:50:23;;;;;;;12.48;7.55;;;;;;;;;;4961160;28;20107;-56
2022/03/13 06:52:52;;;;;;;12.20;7.47;;;;;;;;;;4961913;28;20110;-59
2022/03/13 06:55:20;;;;;;;15.90;8.00;;;;;;;;;;4961129;28;20054;-58
2022/03/13 06:57:49;;;;;;;15.77;8.73;;;;;;;;;;4961615;28;20416;-57
2022/03/13 07:00:20;;;;;;;14.73;8.00;;;;;;;;;;4961587;28;20504;-58
2022/03/13 07:02:47;;;;;;;;;;;;;;;;;;4962574;28;20059;-56
2022/03/13 07:05:14;;;;;;;11.98;7.60;;;;;;;;;;4961746;28;19926;-58
2022/03/13 07:07:42;;;;;;;12.77;8.32;;;;;;;;;;4961787;29;20516;-59
2022/03/13 07:10:10;;;;;;;14.25;7.53;;;;;;;;;;4961495;28;20061;-57
2022/03/13 07:12:37;;;;;;;13.63;8.02;;;;;;;;;;4961004;28;20052;-59
2022/03/13 07:15:13;;;;;;;13.13;7.25;;;;;;;;;;4960790;28;20051;-59
2022/03/13 07:17:41;;;;;;;12.65;7.07;;;;;;;;;;4960971;28;20055;-58
2022/03/13 07:20:09;;;;;;;14.77;7.95;;;;;;;;;;4960913;28;20097;-59
2022/03/13 07:22:36;;;;;;;13.25;7.90;;;;;;;;;;4960883;28;20508;-57
2022/03/13 07:25:03;;;;;;;12.25;7.90;;;;;;;;;;4961717;28;20050;-58
2022/03/13 07:27:30;;;;;;;13.57;7.93;;;;;;;;;;4960770;28;20059;-60
2022/03/13 07:29:57;;;;;;;13.30;7.60;;;;;;;;;;4961476;28;20051;-59
2022/03/13 07:32:27;;;;;;;14.77;8.13;;;;;;;;;;4961920;28;20094;-58
2022/03/13 07:34:54;;;;;;;13.55;8.50;;;;;;;;;;4961068;28;20050;-60
2022/03/13 07:37:21;;;;;;;13.45;8.30;;;;;;;;;;4960919;28;20062;-59
2022/03/13 07:39:48;;;;;;;13.27;7.90;;;;;;;;;;4962153;28;20353;-59
2022/03/13 07:42:16;;;;;;;14.50;8.30;;;;;;;;;;4961546;28;20476;-60
2022/03/13 07:44:43;;;;;;;14.80;8.55;;;;;;;;;;4961841;28;20055;-58
2022/03/13 07:47:11;;;;;;;14.63;8.32;;;;;;;;;;4962046;28;20489;-60
2022/03/13 07:49:40;;;;;;;15.07;8.25;;;;;;;;;;4962097;28;20090;-59
2022/03/13 07:52:08;;;;;;;13.30;8.20;;;;;;;;;;4961840;28;20524;-59
2022/03/13 07:54:35;;;;;;;22.08;9.98;;;;;;;;;;4960825;28;20047;-60
2022/03/13 07:57:02;;;;;;;19.70;11.45;;;;;;;;;;4961459;28;20061;-58
2022/03/13 07:59:29;;;;;;;19.63;11.02;;;;;;;;;;4961452;28;20047;-59
2022/03/13 08:01:56;;;;;;;18.17;10.75;;;;;;;;;;4960186;28;20138;-58
2022/03/13 08:04:24;;;;;;;18.02;10.90;;;;;;;;;;4960880;28;20083;-59
2022/03/13 08:06:53;;;;;;;19.98;10.77;;;;;;;;;;4960282;28;20465;-58
2022/03/13 08:09:20;;;;;;;18.08;10.95;;;;;;;;;;4960908;28;20047;-59
2022/03/13 08:11:47;;;;;;;19.08;11.05;;;;;;;;;;4960958;28;20535;-59
2022/03/13 08:14:14;;;;;;;16.67;10.55;;;;;;;;;;4960926;28;20051;-57
2022/03/13 08:16:41;;;;;;;18.98;11.25;;;;;;;;;;4961003;28;20055;-60
2022/03/13 08:19:10;;;;;;;19.73;10.20;;;;;;;;;;4960285;28;20057;-61
2022/03/13 08:21:39;;;;;;;15.30;10.45;;;;;;;;;;4960170;28;20074;-57
2022/03/13 08:24:08;;;;;;;17.88;11.23;;;;;;;;;;4959882;28;20055;-59
2022/03/13 08:26:38;;;;;;;30.77;17.08;;;;;;;;;;4960491;28;20087;-58
2022/03/13 08:29:05;;;;;;;28.20;15.80;;;;;;;;;;4960199;28;20158;-59
2022/03/13 08:31:33;;;;;;;18.58;11.43;;;;;;;;;;4959843;28;20083;-60
2022/03/13 08:34:00;;;;;;;18.55;11.30;;;;;;;;;;4960780;28;20094;-58
2022/03/13 08:36:28;;;;;;;20.70;10.82;;;;;;;;;;4959954;28;20564;-59
2022/03/13 08:38:55;;;;;;;17.75;10.70;;;;;;;;;;4960304;28;20058;-60
2022/03/13 08:41:24;;;;;;;17.98;10.48;;;;;;;;;;4960488;28;20051;-59
2022/03/13 08:43:53;;;;;;;20.67;11.50;;;;;;;;;;4960570;28;20514;-64
2022/03/13 08:46:21;;;;;;;22.25;12.55;;;;;;;;;;4959860;28;20051;-60
2022/03/13 08:48:49;;;;;;;24.33;13.10;;;;;;;;;;4960337;28;20062;-59
2022/03/13 08:51:18;;;;;;;20.40;11.13;;;;;;;;;;4960375;28;20531;-59
2022/03/13 08:53:47;;;;;;;19.27;10.88;;;;;;;;;;4959666;28;20069;-60
2022/03/13 08:56:15;;;;;;;19.50;12.25;;;;;;;;;;4960643;28;20476;-58
2022/03/13 08:58:43;;;;;;;18.33;10.85;;;;;;;;;;4960649;28;20079;-58
2022/03/13 09:01:11;;;;;;;19.73;11.55;;;;;;;;;;4960216;28;20055;-59
2022/03/13 09:03:39;;;;;;;22.80;11.32;;;;;;;;;;4960053;28;20544;-59
2022/03/13 09:06:06;;;;;;;19.92;11.15;;;;;;;;;;4959072;28;20055;-60
2022/03/13 09:08:38;;;;;;;16.88;10.10;;;;;;;;;;4959235;28;20111;-59
2022/03/13 09:11:06;;;;;;;20.48;11.52;;;;;;;;;;4960861;29;20078;-59
2022/03/13 09:13:34;;;;;;;18.00;11.63;;;;;;;;;;4960002;28;20066;-58
2022/03/13 09:16:02;;;;;;;18.20;10.82;;;;;;;;;;4959679;28;20047;-58
2022/03/13 09:18:30;;;;;;;19.08;11.23;;;;;;;;;;4959224;28;20452;-60
2022/03/13 09:20:58;;;;;;;20.58;11.85;;;;;;;;;;4958989;28;20059;-58
2022/03/13 09:23:25;;;;;;;19.83;11.13;;;;;;;;;;4958888;28;20066;-59
2022/03/13 09:25:53;;;;;;;18.42;11.20;;;;;;;;;;4958470;28;20547;-59
2022/03/13 09:28:21;;;;;;;17.58;11.20;;;;;;;;;;4959457;28;20464;-59
2022/03/13 09:30:48;;;;;;;19.70;11.05;;;;;;;;;;4959841;28;20119;-60
2022/03/13 09:33:17;;;;;;;19.92;11.68;;;;;;;;;;4959730;28;20058;-60
2022/03/13 09:35:44;;;;;;;22.33;12.75;;;;;;;;;;4959798;28;20091;-58
2022/03/13 09:38:11;;;;;;;22.58;11.88;;;;;;;;;;4959120;28;20058;-59
2022/03/13 09:40:39;;;;;;;20.10;11.60;;;;;;;;;;4959233;28;20078;-59
2022/03/13 09:43:06;;;;;;;17.70;10.85;;;;;;;;;;4960376;28;20055;-60
2022/03/13 09:45:33;;;;;;;22.45;11.55;;;;;;;;;;4959641;28;20502;-60
2022/03/13 09:48:02;;;;;;;17.10;10.95;;;;;;;;;;4958936;28;20134;-60
2022/03/13 09:50:31;;;;;;;19.73;10.77;;;;;;;;;;4959286;28;20091;-60
2022/03/13 09:52:58;;;;;;;18.30;11.55;;;;;;;;;;4959419;28;20445;-60
2022/03/13 09:55:26;;;;;;;19.98;12.00;;;;;;;;;;4977458;23;20082;-64
2022/03/13 09:57:54;;;;;;;20.85;12.95;;;;;;;;;;4972705;28;20047;-65
2022/03/13 10:00:23;;;;;;;25.85;15.45;;;;;;;;;;4972721;28;20146;-66
2022/03/13 10:02:53;;;;;;;19.33;12.07;;;;;;;;;;4972703;28;20062;-65
2022/03/13 10:05:22;;;;;;;21.55;11.50;;;;;;;;;;4972505;28;20054;-65
2022/03/13 10:07:59;;;;;;;19.33;10.50;;;;;;;;;;4972621;28;20058;-65
2022/03/13 10:10:30;;;;;;;18.40;10.75;;;;;;;;;;4972980;28;20479;-65
2022/03/13 10:12:57;;;;;;;19.33;9.70;;;;;;;;;;4972777;28;20082;-66
2022/03/13 10:15:25;;;;;;;21.73;13.20;;;;;;;;;;4972499;28;20051;-65
2022/03/13 10:17:52;;;;;;;21.77;13.32;;;;;;;;;;4972626;28;20492;-65
2022/03/13 10:20:23;;;;;;;20.63;11.95;;;;;;;;;;4972491;28;20051;-65
2022/03/13 10:22:55;;;;;;;22.33;11.90;;;;;;;;;;4972885;28;20054;-65
2022/03/13 10:25:33;;;;;;;21.55;12.50;;;;;;;;;;4972297;28;20053;-65
2022/03/13 10:28:17;;;;;;;21.98;12.07;;;;;;;;;;4972470;28;20082;-65
2022/03/13 10:30:45;;;;;;;22.52;12.00;;;;;;;;;;4973984;28;20467;-65
2022/03/13 10:33:13;;;;;;;17.98;10.48;;;;;;;;;;4976266;28;20051;-65
2022/03/13 10:35:40;;;;;;;18.00;10.43;;;;;;;;;;4976054;28;20042;-65
2022/03/13 10:38:15;;;;;;;27.10;16.02;;;;;;;;;;4975740;28;20046;-65
2022/03/13 10:40:45;;;;;;;24.73;13.35;;;;;;;;;;4975933;28;20043;-65
2022/03/13 10:43:18;;;;;;;22.58;11.27;;;;;;;;;;4975975;28;20142;-65
2022/03/13 10:45:51;;;;;;;17.60;10.45;;;;;;;;;;4958834;28;20539;-65
2022/03/13 10:48:21;;;;;;;21.42;11.15;;;;;;;;;;4957089;28;20059;-65
2022/03/13 10:50:50;;;;;;;17.27;11.10;;;;;;;;;;4956887;28;20051;-64
2022/03/13 10:53:18;;;;;;;20.10;10.70;;;;;;;;;;4956761;28;20086;-65
2022/03/13 10:56:00;;;;;;;19.15;10.95;;;;;;;;;;4956725;28;20059;-65
2022/03/13 10:58:30;;;;;;;21.13;10.98;;;;;;;;;;4956516;28;20101;-66
2022/03/13 11:01:05;;;;;;;18.52;10.82;;;;;;;;;;4956401;28;20062;-65
2022/03/13 11:03:32;;;;;;;19.70;10.65;;;;;;;;;;4957565;28;20043;-65
2022/03/13 11:05:59;;;;;;;21.70;11.75;;;;;;;;;;4956185;28;20055;-66
2022/03/13 11:08:26;;;;;;;19.73;11.93;;;;;;;;;;4956424;28;20057;-64
2022/03/13 11:10:57;;;;;;;18.80;10.35;;;;;;;;;;4956287;28;20051;-67
2022/03/13 11:13:27;;;;;;;17.80;9.80;;;;;;;;;;4956149;28;20082;-65
2022/03/13 11:15:56;;;;;;;20.67;11.38;;;;;;;;;;4956138;28;20568;-66
2022/03/13 11:18:29;;;;;;;22.23;11.10;;;;;;;;;;4955776;28;20043;-65
2022/03/13 11:20:56;;;;;;;17.00;10.48;;;;;;;;;;4956038;28;20059;-65
2022/03/13 11:23:23;;;;;;;19.67;10.55;;;;;;;;;;4956285;28;20043;-65
2022/03/13 11:25:55;;;;;;;18.25;10.35;;;;;;;;;;4955722;28;20051;-66
2022/03/13 11:28:23;;;;;;;18.95;10.25;;;;;;;;;;4956320;28;20047;-66
2022/03/13 11:30:51;;;;;;;23.95;11.20;;;;;;;;;;4955999;28;20497;-66
2022/03/13 11:33:41;;;;;;;19.38;11.77;;;;;;;;;;4956331;28;20051;-65
2022/03/13 11:36:28;;;;;;;21.42;12.52;;;;;;;;;;4956001;28;20055;-65
2022/03/13 11:38:58;;;;;;;17.92;10.00;;;;;;;;;;4955738;28;20098;-65
2022/03/13 11:41:40;;;;;;;17.60;10.35;;;;;;;;;;4954968;28;20047;-65
2022/03/13 11:44:41;;;;;;;18.88;10.90;;;;;;;;;;4955949;28;20406;-68
2022/03/13 11:47:22;;;;;;;18.73;10.82;;;;;;;;;;4956613;28;20522;-69
2022/03/13 11:49:50;;;;;;;17.08;10.80;;;;;;;;;;4955687;28;20051;-68
2022/03/13 11:52:31;;;;;;;18.80;11.25;;;;;;;;;;4955746;28;20058;-69
2022/03/13 11:55:01;;;;;;;19.60;10.43;;;;;;;;;;4955454;28;20054;-67
2022/03/13 11:57:30;;;;;;;16.80;9.90;;;;;;;;;;4955548;28;20050;-66
2022/03/13 12:00:31;;;;;;;17.13;10.15;;;;;;;;;;4955089;28;20055;-67
2022/03/13 12:03:11;;;;;;;16.92;10.60;;;;;;;;;;4957233;28;20462;-67
2022/03/13 12:05:52;;;;;;;18.50;11.48;;;;;;;;;;4956721;28;20386;-66
2022/03/13 12:08:22;;;;;;;18.70;10.57;;;;;;;;;;4956326;28;20107;-67
2022/03/13 12:10:49;;;;;;;19.77;12.33;;;;;;;;;;4957274;28;20395;-67
2022/03/13 12:13:18;;;;;;;18.27;10.40;;;;;;;;;;4956142;28;20289;-66
2022/03/13 12:15:47;;;;;;;16.80;10.80;;;;;;;;;;4955924;28;20099;-67
2022/03/13 12:18:17;;;;;;;19.10;10.88;;;;;;;;;;4955425;28;20393;-66
2022/03/13 12:20:45;;;;;;;17.52;10.73;;;;;;;;;;4955595;28;20133;-66
2022/03/13 12:23:25;;;;;;;18.75;11.25;;;;;;;;;;4956310;28;20417;-68
2022/03/13 12:25:54;;;;;;;17.58;11.40;;;;;;;;;;4955884;28;20055;-67
2022/03/13 12:28:33;;;;;;;17.80;10.38;;;;;;;;;;4955410;28;20047;-67
2022/03/13 12:31:02;;;;;;;19.23;10.40;;;;;;;;;;4955733;28;20078;-65
2022/03/13 12:33:31;;;;;;;19.60;12.18;;;;;;;;;;4955173;28;20051;-66
2022/03/13 12:35:59;;;;;;;21.38;11.43;;;;;;;;;;4955632;28;20397;-67
2022/03/13 12:38:31;;;;;;;20.73;11.70;;;;;;;;;;4956278;28;20051;-67
2022/03/13 12:40:59;;;;;;;17.92;10.75;;;;;;;;;;4955786;28;20134;-66
2022/03/13 12:43:43;;;;;;;18.88;10.98;;;;;;;;;;4955963;28;20047;-68
2022/03/13 12:46:13;;;;;;;19.40;10.73;;;;;;;;;;4936446;29;20460;-67
2022/03/13 12:48:50;;;;;;;19.07;11.73;;;;;;;;;;4936049;29;20047;-65
2022/03/13 12:51:34;;;;;;;19.10;11.38;;;;;;;;;;4935846;29;20146;-67
2022/03/13 12:54:02;;;;;;;20.58;11.73;;;;;;;;;;4935072;29;20055;-66
2022/03/13 12:56:30;;;;;;;19.98;11.90;;;;;;;;;;4935826;29;20089;-65
2022/03/13 12:58:58;;;;;;;20.02;11.98;;;;;;;;;;4936070;29;20051;-67
2022/03/13 13:01:26;;;;;;;18.48;10.80;;;;;;;;;;4936388;29;20051;-66
2022/03/13 13:03:55;;;;;;;20.13;11.55;;;;;;;;;;4936032;29;20055;-66
2022/03/13 13:06:32;;;;;;;18.80;10.57;;;;;;;;;;4935033;29;20055;-66
2022/03/13 13:08:59;;;;;;;19.48;11.13;;;;;;;;;;4935181;29;20058;-66
2022/03/13 13:11:35;;;;;;;18.90;10.68;;;;;;;;;;4935169;29;20448;-65
2022/03/13 13:14:03;;;;;;;19.58;11.50;;;;;;;;;;4935686;29;20147;-66
2022/03/13 13:16:33;;;;;;;17.73;11.48;;;;;;;;;;4935749;29;20315;-65
2022/03/13 13:19:00;;;;;;;17.05;11.45;;;;;;;;;;4935683;29;20549;-66
2022/03/13 13:21:39;;;;;;;18.77;10.38;;;;;;;;;;4936179;29;20051;-66
2022/03/13 13:24:23;;;;;;;17.00;10.32;;;;;;;;;;4935466;29;20059;-66
2022/03/13 13:26:50;;;;;;;17.80;10.48;;;;;;;;;;4935527;29;20549;-66
2022/03/13 13:29:31;;;;;;;19.15;11.02;;;;;;;;;;4935494;29;20147;-65
2022/03/13 13:32:22;;;;;;;18.50;11.43;;;;;;;;;;4935043;29;20083;-66
2022/03/13 13:35:03;;;;;;;23.92;11.82;;;;;;;;;;4935246;29;20099;-66
2022/03/13 13:37:31;;;;;;;19.05;10.88;;;;;;;;;;4935197;29;20131;-66
2022/03/13 13:40:08;;;;;;;19.88;11.20;;;;;;;;;;4935109;29;20476;-66
2022/03/13 13:42:36;;;;;;;16.55;10.80;;;;;;;;;;4935099;29;20054;-66
2022/03/13 13:45:25;;;;;;;20.30;12.07;;;;;;;;;;4946390;28;20126;-66
2022/03/13 13:47:53;;;;;;;18.60;11.27;;;;;;;;;;4954118;28;20507;-66
2022/03/13 13:50:25;;;;;;;20.30;11.35;;;;;;;;;;4954107;28;20196;-66
2022/03/13 13:53:01;;;;;;;19.80;11.75;;;;;;;;;;4953749;28;20055;-67
2022/03/13 13:55:34;;;;;;;20.08;11.70;;;;;;;;;;4953375;28;20055;-67
2022/03/13 13:58:15;;;;;;;17.02;11.05;;;;;;;;;;4953830;28;20043;-67
2022/03/13 14:00:42;;;;;;;;;;;;;;;;;;4954233;28;20497;-67
2022/03/13 14:03:11;;;;;;;18.98;11.55;;;;;;;;;;4953881;28;19965;-67
2022/03/13 14:05:38;;;;;;;17.38;11.38;;;;;;;;;;4956085;28;20043;-66
2022/03/13 14:08:05;;;;;;;19.77;11.93;;;;;;;;;;4957571;28;20102;-67
2022/03/13 14:10:33;;;;;;;18.85;11.50;;;;;;;;;;4957428;28;20062;-67
2022/03/13 14:13:01;;;;;;;18.52;11.73;;;;;;;;;;4957166;28;20060;-67
2022/03/13 14:15:28;;;;;;;17.17;11.38;;;;;;;;;;4956821;28;20058;-69
2022/03/13 14:17:55;;;;;;;18.98;12.35;;;;;;;;;;4955468;28;20063;-67
2022/03/13 14:20:24;;;;;;;17.85;11.18;;;;;;;;;;4955284;28;20054;-67
2022/03/13 14:22:51;;;;;;;18.13;10.63;;;;;;;;;;4955071;29;20050;-67
2022/03/13 14:25:19;;;;;;;17.45;10.65;;;;;;;;;;4954724;29;20079;-68
2022/03/13 14:27:47;;;;;;;17.63;10.73;;;;;;;;;;4954939;28;20417;-66
2022/03/13 14:30:14;;;;;;;16.80;9.95;;;;;;;;;;4955121;28;20047;-66
2022/03/13 14:32:43;;;;;;;15.40;9.05;;;;;;;;;;4954852;28;20504;-67
2022/03/13 14:35:10;;;;;;;15.55;10.10;;;;;;;;;;4954876;29;20051;-66
2022/03/13 14:37:40;;;;;;;17.70;10.25;;;;;;;;;;4954890;28;20086;-67
2022/03/13 14:40:09;;;;;;;15.43;10.77;;;;;;;;;;4954741;29;20046;-66